Time;durP1;ratioP1;P1;durP2;ratioP2;P2;SDS_P1;SDS_P2;PMS_P1;PMS_P2;Temp;Humidity;BMP_temperature;BMP_pressure;BME280_temperature;BME280_humidity;BME280_pressure;Samples;Min_cycle;Max_cycle;Signal;HPM_P1;HPM_P2
2024/02/17 00:01:29;;;;;;;29.92;18.98;;;;;;;9.22;100.00;101063.69;10458146;28;20071;-80
2024/02/17 00:06:33;;;;;;;40.00;20.60;;;;;;;9.22;100.00;101060.16;10459052;28;20182;-80
2024/02/17 00:11:37;;;;;;;37.22;19.95;;;;;;;9.20;100.00;101067.44;10468328;28;20095;-80
2024/02/17 00:16:42;;;;;;;35.17;20.48;;;;;;;9.17;100.00;101078.34;10471909;28;20064;-80
2024/02/17 00:21:45;;;;;;;34.75;19.85;;;;;;;8.95;100.00;101070.81;10467453;28;20041;-79
2024/02/17 00:26:49;;;;;;;39.28;19.13;;;;;;;8.47;100.00;101064.88;10461270;28;20417;-80
2024/02/17 00:31:52;;;;;;;35.97;18.67;;;;;;;8.81;100.00;101074.38;10454670;28;20043;-79
2024/02/17 00:36:55;;;;;;;36.13;20.40;;;;;;;8.76;100.00;101074.66;10453239;28;20045;-80
2024/02/17 00:42:02;;;;;;;35.05;18.60;;;;;;;8.71;100.00;101082.09;10462765;28;20064;-80
2024/02/17 00:47:06;;;;;;;41.85;22.52;;;;;;;8.85;100.00;101089.28;10459878;28;20041;-79
2024/02/17 00:52:09;;;;;;;37.55;19.73;;;;;;;8.88;100.00;101094.44;10452860;28;20049;-80
2024/02/17 00:57:13;;;;;;;41.50;20.95;;;;;;;9.01;100.00;101108.81;10458036;28;20408;-81
2024/02/17 01:02:16;;;;;;;37.25;19.23;;;;;;;8.97;100.00;101111.78;10444021;28;20072;-80
2024/02/17 01:07:19;;;;;;;37.92;19.63;;;;;;;8.58;100.00;101118.63;10454196;28;20149;-81
2024/02/17 01:12:25;;;;;;;35.63;19.52;;;;;;;8.99;100.00;101128.63;10446409;28;20051;-80
2024/02/17 01:17:28;;;;;;;36.15;18.42;;;;;;;8.84;100.00;101142.00;10445602;28;20040;-78
2024/02/17 01:22:31;;;;;;;36.85;19.55;;;;;;;8.94;100.00;101136.06;10453684;28;20123;-80
2024/02/17 01:27:35;;;;;;;34.25;19.30;;;;;;;8.57;100.00;101147.25;10448198;28;20037;-81
2024/02/17 01:32:38;;;;;;;34.72;17.77;;;;;;;8.92;100.00;101154.94;10459576;28;20516;-80
2024/02/17 01:37:41;;;;;;;35.13;19.42;;;;;;;8.94;100.00;101161.09;10448576;28;20041;-79
2024/02/17 01:42:46;;;;;;;36.40;18.88;;;;;;;8.77;100.00;101171.94;10447490;28;20136;-80
2024/02/17 01:47:49;;;;;;;37.42;19.40;;;;;;;8.86;100.00;101170.53;10444330;28;20112;-79
2024/02/17 01:52:53;;;;;;;34.97;18.98;;;;;;;9.03;100.00;101173.91;10457226;28;20134;-79
2024/02/17 01:57:57;;;;;;;37.63;18.40;;;;;;;9.05;100.00;101188.06;10460293;28;20049;-80
2024/02/17 02:03:01;;;;;;;30.75;16.67;;;;;;;8.88;100.00;101195.41;10460434;28;20160;-78
2024/02/17 02:08:05;;;;;;;32.08;18.27;;;;;;;8.90;100.00;101194.38;10477999;28;20018;-81
2024/02/17 02:13:10;;;;;;;36.13;18.60;;;;;;;8.91;100.00;101198.75;10478626;28;20563;-80
2024/02/17 02:18:13;;;;;;;28.05;16.10;;;;;;;8.25;100.00;101204.47;10450612;28;20041;-81
2024/02/17 02:23:16;;;;;;;36.83;18.85;;;;;;;8.51;100.00;101203.84;10443271;28;20071;-80
2024/02/17 02:28:21;;;;;;;31.10;17.90;;;;;;;8.81;100.00;101206.50;10451448;28;20120;-81
2024/02/17 02:33:25;;;;;;;33.08;19.35;;;;;;;8.63;100.00;101222.81;10453345;28;20048;-81
2024/02/17 02:38:28;;;;;;;34.75;19.02;;;;;;;8.89;100.00;101219.44;10456392;28;20833;-81
2024/02/17 02:43:32;;;;;;;33.38;17.58;;;;;;;8.95;100.00;101227.09;10446180;28;20464;-80
2024/02/17 02:48:35;;;;;;;38.25;19.20;;;;;;;8.77;100.00;101229.06;10467281;28;20068;-81
2024/02/17 02:53:39;;;;;;;32.80;17.55;;;;;;;8.73;100.00;101232.91;10459466;28;20075;-81
2024/02/17 02:58:44;;;;;;;36.35;17.98;;;;;;;8.85;100.00;101239.31;10462982;28;20044;-79
2024/02/17 03:03:48;;;;;;;31.98;17.77;;;;;;;8.50;100.00;101245.00;10460054;28;20045;-80
2024/02/17 03:08:52;;;;;;;31.98;16.77;;;;;;;8.39;100.00;101236.66;10453896;28;20101;-81
2024/02/17 03:13:56;;;;;;;33.40;18.95;;;;;;;8.53;100.00;101238.56;10461121;28;20037;-81
2024/02/17 03:18:59;;;;;;;33.88;17.60;;;;;;;8.91;100.00;101247.00;10455980;28;20076;-81
2024/02/17 03:24:02;;;;;;;37.95;19.10;;;;;;;8.63;100.00;101246.94;10467674;28;20041;-81
2024/02/17 03:29:07;;;;;;;32.00;17.55;;;;;;;8.54;100.00;101253.69;10455733;28;20220;-81
2024/02/17 03:34:10;;;;;;;38.42;18.55;;;;;;;8.58;100.00;101261.47;10460521;28;20120;-82
2024/02/17 03:39:15;;;;;;;36.35;17.27;;;;;;;8.71;100.00;101272.31;10462639;28;20489;-81
2024/02/17 03:44:21;;;;;;;37.80;17.70;;;;;;;8.55;100.00;101279.50;10462333;28;20111;-81
2024/02/17 03:49:24;;;;;;;34.65;17.40;;;;;;;8.68;100.00;101280.53;10456801;28;20041;-82
2024/02/17 03:54:27;;;;;;;33.60;18.20;;;;;;;8.60;100.00;101288.16;10465573;28;20120;-81
2024/02/17 03:59:31;;;;;;;37.05;19.02;;;;;;;8.46;100.00;101294.31;10460929;28;20759;-81
2024/02/17 04:04:34;;;;;;;36.90;18.98;;;;;;;8.71;100.00;101301.75;10457339;28;20038;-82
2024/02/17 04:09:37;;;;;;;38.13;19.98;;;;;;;8.43;100.00;101310.53;10456754;28;20428;-81
2024/02/17 04:14:43;;;;;;;37.53;20.42;;;;;;;8.67;100.00;101319.00;10458606;28;20041;-81
2024/02/17 04:19:46;;;;;;;44.42;23.80;;;;;;;8.95;100.00;101333.44;10456461;28;20115;-79
2024/02/17 04:24:49;;;;;;;47.22;22.35;;;;;;;8.96;100.00;101338.69;10457236;28;20052;-81
2024/02/17 04:29:54;;;;;;;47.17;25.88;;;;;;;9.04;100.00;101349.81;10457191;28;20056;-81
2024/02/17 04:34:57;;;;;;;41.00;20.38;;;;;;;8.80;100.00;101349.47;10452920;28;20033;-82
2024/02/17 04:40:00;;;;;;;42.15;24.05;;;;;;;8.78;100.00;101351.38;10456537;28;20057;-79
2024/02/17 04:45:05;;;;;;;41.95;23.23;;;;;;;8.92;100.00;101355.06;10456495;28;20043;-81
2024/02/17 04:50:12;;;;;;;45.45;25.42;;;;;;;8.64;100.00;101371.84;10454039;28;20520;-81
2024/02/17 04:55:15;;;;;;;38.88;21.10;;;;;;;8.73;100.00;101366.84;10447973;28;20045;-81
2024/02/17 05:00:20;;;;;;;48.47;24.83;;;;;;;8.69;100.00;101376.00;10447450;28;20041;-82
2024/02/17 05:05:23;;;;;;;50.83;24.33;;;;;;;8.58;100.00;101384.66;10450067;28;20065;-81
2024/02/17 05:10:26;;;;;;;49.83;25.45;;;;;;;8.78;100.00;101398.75;10451123;28;20060;-81
2024/02/17 05:15:31;;;;;;;53.95;26.35;;;;;;;8.76;100.00;101396.13;10452706;28;20136;-80
2024/02/17 05:20:34;;;;;;;49.13;24.80;;;;;;;8.56;100.00;101408.00;10455204;28;20045;-79
2024/02/17 05:25:37;;;;;;;50.95;23.23;;;;;;;8.71;100.00;101402.69;10447790;28;20049;-81
2024/02/17 05:30:41;;;;;;;49.60;24.15;;;;;;;8.81;100.00;101431.56;10455952;28;20091;-81
2024/02/17 05:35:45;;;;;;;51.10;25.95;;;;;;;8.79;100.00;101435.28;10455585;28;20033;-79
2024/02/17 05:40:48;;;;;;;53.53;27.95;;;;;;;8.84;100.00;101433.22;10454739;28;20068;-82
2024/02/17 05:45:52;;;;;;;64.68;28.13;;;;;;;8.94;100.00;101442.47;10451603;28;20040;-81
2024/02/17 05:50:55;;;;;;;51.92;24.85;;;;;;;8.83;100.00;101455.56;10442010;28;20041;-80
2024/02/17 05:55:58;;;;;;;55.67;27.13;;;;;;;8.80;100.00;101462.00;10446289;28;20030;-81
2024/02/17 06:01:03;;;;;;;59.65;23.67;;;;;;;8.53;100.00;101467.09;10450496;28;20048;-81
2024/02/17 06:06:07;;;;;;;51.47;28.45;;;;;;;8.84;100.00;101481.44;10452163;28;20114;-81
2024/02/17 06:11:10;;;;;;;58.35;27.88;;;;;;;8.90;100.00;101494.47;10450007;28;20045;-80
2024/02/17 06:16:14;;;;;;;55.80;28.48;;;;;;;9.07;100.00;101490.84;10448115;28;20037;-80
2024/02/17 06:21:21;;;;;;;50.95;26.40;;;;;;;8.95;100.00;101487.06;10454825;28;20052;-81
2024/02/17 06:26:26;;;;;;;51.65;27.85;;;;;;;9.03;100.00;101500.03;10455834;28;20087;-79
2024/02/17 06:31:30;;;;;;;50.83;27.08;;;;;;;9.10;100.00;101498.69;10457389;28;20049;-80
2024/02/17 06:36:37;;;;;;;50.55;25.55;;;;;;;8.68;100.00;101526.97;10452754;28;20041;-82
2024/02/17 06:41:40;;;;;;;53.10;26.92;;;;;;;8.68;100.00;101528.78;10443012;28;20516;-81
2024/02/17 06:46:46;;;;;;;53.80;28.92;;;;;;;8.71;100.00;101528.63;10454412;28;20056;-82
2024/02/17 06:51:49;;;;;;;51.25;25.60;;;;;;;9.13;100.00;101548.59;10446984;28;20565;-81
2024/02/17 06:56:52;;;;;;;53.47;25.98;;;;;;;8.95;100.00;101551.38;10438218;28;20125;-80
2024/02/17 07:01:56;;;;;;;50.53;27.52;;;;;;;8.90;100.00;101564.16;10458473;28;20051;-81
2024/02/17 07:06:59;;;;;;;43.78;24.83;;;;;;;8.99;100.00;101570.81;10462925;28;20075;-81
2024/02/17 07:12:03;;;;;;;47.28;25.27;;;;;;;8.74;100.00;101576.66;10450974;28;20068;-81
2024/02/17 07:17:07;;;;;;;47.08;24.02;;;;;;;8.75;100.00;101583.75;10440767;28;20036;-79
2024/02/17 07:22:10;;;;;;;41.42;23.10;;;;;;;8.39;100.00;101590.97;10446871;28;20037;-81
2024/02/17 07:27:13;;;;;;;43.88;23.42;;;;;;;8.74;100.00;101608.81;10454646;28;20105;-80
2024/02/17 07:32:18;;;;;;;46.35;23.98;;;;;;;9.05;100.00;101616.94;10456462;28;20041;-80
2024/02/17 07:37:21;;;;;;;46.92;24.52;;;;;;;9.30;100.00;101623.59;10458352;28;20104;-79
2024/02/17 07:42:25;;;;;;;49.03;25.02;;;;;;;8.80;100.00;101625.44;10461572;28;20144;-79
2024/02/17 07:47:31;;;;;;;49.22;26.08;;;;;;;9.24;100.00;101638.22;10483032;28;20026;-79
2024/02/17 07:52:35;;;;;;;53.28;25.75;;;;;;;8.95;100.00;101641.63;10471981;28;20044;-81
2024/02/17 07:57:38;;;;;;;45.33;24.95;;;;;;;9.15;100.00;101652.13;10455516;28;20033;-80
2024/02/17 08:02:45;;;;;;;56.20;28.83;;;;;;;9.31;100.00;101662.88;10463129;28;20071;-79
2024/02/17 08:07:48;;;;;;;52.47;24.92;;;;;;;9.04;100.00;101675.97;10459193;28;20127;-81
2024/02/17 08:12:52;;;;;;;45.50;24.55;;;;;;;9.27;100.00;101672.91;10458082;28;20075;-81
2024/02/17 08:17:56;;;;;;;45.72;23.85;;;;;;;9.32;100.00;101679.81;10456377;28;20112;-81
2024/02/17 08:22:59;;;;;;;41.13;22.25;;;;;;;9.53;100.00;101699.22;10448703;28;20041;-81
2024/02/17 08:28:02;;;;;;;42.85;22.52;;;;;;;9.69;100.00;101694.72;10454058;28;20120;-81
2024/02/17 08:33:07;;;;;;;39.08;20.80;;;;;;;9.67;100.00;101710.03;10459503;28;20028;-81
2024/02/17 08:38:10;;;;;;;38.70;20.30;;;;;;;9.82;100.00;101717.25;10476639;28;20179;-81
2024/02/17 08:43:13;;;;;;;29.10;17.08;;;;;;;9.86;100.00;101715.28;10456268;28;20052;-81
2024/02/17 08:48:18;;;;;;;27.50;16.90;;;;;;;9.89;100.00;101726.69;10459154;28;20409;-81
2024/02/17 08:53:22;;;;;;;30.08;16.85;;;;;;;10.02;100.00;101723.31;10456374;28;20079;-79
2024/02/17 08:58:25;;;;;;;27.27;16.08;;;;;;;10.32;96.16;101731.41;10456180;28;20097;-80
2024/02/17 09:03:30;;;;;;;30.58;15.88;;;;;;;10.06;96.45;101730.22;10459632;28;20048;-80
2024/02/17 09:08:33;;;;;;;25.48;14.95;;;;;;;9.82;97.64;101738.72;10453987;28;20045;-81
2024/02/17 09:13:36;;;;;;;27.10;13.70;;;;;;;9.94;94.16;101748.78;10449073;28;20049;-80
2024/02/17 09:18:40;;;;;;;22.98;13.70;;;;;;;9.95;96.11;101755.00;10454747;28;20033;-81
2024/02/17 09:23:43;;;;;;;21.70;13.60;;;;;;;9.79;95.03;101771.09;10451647;28;20045;-80
2024/02/17 09:28:46;;;;;;;22.67;11.93;;;;;;;10.43;92.15;101771.09;10444555;28;20040;-81
2024/02/17 09:33:51;;;;;;;21.05;10.35;;;;;;;11.66;84.24;101775.25;10453033;28;20049;-81
2024/02/17 09:38:54;;;;;;;20.15;11.00;;;;;;;11.88;81.92;101778.28;10452972;28;20044;-81
2024/02/17 09:43:57;;;;;;;19.77;11.10;;;;;;;11.95;78.75;101782.28;10450466;28;20049;-81
2024/02/17 09:49:02;;;;;;;17.80;11.13;;;;;;;12.14;78.35;101789.19;10455496;28;20037;-79
2024/02/17 09:54:06;;;;;;;17.50;10.07;;;;;;;11.89;77.80;101798.84;10446893;28;20045;-81
2024/02/17 09:59:10;;;;;;;15.18;10.25;;;;;;;12.50;74.44;101799.38;10443745;28;20045;-82
2024/02/17 10:04:14;;;;;;;18.55;11.88;;;;;;;13.42;73.05;101811.13;10452861;28;20045;-81
2024/02/17 10:09:19;;;;;;;14.68;9.55;;;;;;;13.91;69.16;101808.47;10451334;28;20468;-82
2024/02/17 10:14:23;;;;;;;14.88;9.63;;;;;;;14.02;63.92;101818.50;10447865;28;20052;-81
2024/02/17 10:19:29;;;;;;;15.48;9.52;;;;;;;14.81;64.29;101827.94;10446508;28;20041;-81
2024/02/17 10:24:32;;;;;;;15.27;10.25;;;;;;;13.79;66.37;101838.19;10443161;28;20064;-80
2024/02/17 10:29:36;;;;;;;16.98;9.75;;;;;;;15.03;64.47;101840.69;10443059;28;20045;-78
2024/02/17 10:34:40;;;;;;;16.50;9.55;;;;;;;14.21;65.11;101845.03;10446955;28;20053;-81
2024/02/17 10:39:47;;;;;;;11.70;8.80;;;;;;;14.55;63.68;101853.38;10448462;28;20248;-79
2024/02/17 10:44:50;;;;;;;11.55;7.40;;;;;;;13.41;63.01;101849.88;10447300;28;20045;-81
2024/02/17 10:50:04;;;;;;;9.45;7.00;;;;;;;14.22;61.46;101852.16;10465550;28;20041;-79
2024/02/17 10:55:11;;;;;;;8.88;6.53;;;;;;;14.94;61.84;101859.44;10442720;28;20053;-81
2024/02/17 11:00:15;;;;;;;12.95;7.13;;;;;;;13.61;63.28;101870.94;10447992;28;20049;-80
2024/02/17 11:05:21;;;;;;;9.77;6.15;;;;;;;15.04;61.48;101860.47;10446309;28;20033;-81
2024/02/17 11:10:29;;;;;;;7.53;6.28;;;;;;;15.90;56.37;101859.16;10465000;28;20049;-81
2024/02/17 11:15:32;;;;;;;8.13;6.03;;;;;;;15.73;56.11;101878.63;10452871;28;20060;-82
2024/02/17 11:20:40;;;;;;;8.55;5.97;;;;;;;16.42;55.02;101864.94;10445283;28;20079;-81
2024/02/17 11:25:43;;;;;;;7.00;4.95;;;;;;;16.97;51.33;101874.72;10453139;28;20079;-81
2024/02/17 11:30:51;;;;;;;8.10;5.55;;;;;;;15.27;55.43;101886.63;10446885;28;20136;-82
2024/02/17 11:35:58;;;;;;;9.13;5.38;;;;;;;14.79;58.32;101888.53;10453480;28;20152;-80
2024/02/17 11:41:02;;;;;;;7.93;5.03;;;;;;;15.12;56.95;101876.13;10451882;28;20049;-82
2024/02/17 11:46:05;;;;;;;8.63;5.07;;;;;;;15.66;55.37;101872.81;10447529;28;20059;-77
2024/02/17 11:51:13;;;;;;;7.32;4.60;;;;;;;16.63;53.36;101879.44;10474968;28;20342;-79
2024/02/17 11:56:17;;;;;;;6.13;4.72;;;;;;;17.26;49.43;101876.84;10468471;28;20067;-78
2024/02/17 12:01:20;;;;;;;5.43;4.65;;;;;;;19.00;47.13;101878.50;10472620;28;20116;-78
2024/02/17 12:06:26;;;;;;;5.50;4.78;;;;;;;18.98;47.25;101881.38;10454030;28;20045;-81
2024/02/17 12:11:29;;;;;;;9.05;4.90;;;;;;;18.77;46.41;101886.06;10477044;28;20041;-79
2024/02/17 12:16:32;;;;;;;11.30;5.75;;;;;;;17.14;49.51;101895.06;10472758;28;20041;-81
2024/02/17 12:21:38;;;;;;;11.57;5.30;;;;;;;14.90;58.34;101902.13;10466621;28;20052;-79
2024/02/17 12:26:42;;;;;;;10.13;5.93;;;;;;;13.19;65.26;101902.63;10471840;28;20120;-77
2024/02/17 12:31:51;;;;;;;7.45;5.50;;;;;;;12.10;71.98;101900.81;10468810;28;20045;-79
2024/02/17 12:36:56;;;;;;;13.40;7.20;;;;;;;12.35;70.38;101900.13;10479444;28;20052;-79
2024/02/17 12:42:02;;;;;;;11.40;5.65;;;;;;;11.96;74.71;101904.38;10476987;28;20036;-79
2024/02/17 12:47:16;;;;;;;10.45;5.60;;;;;;;12.93;71.68;101904.38;10472682;28;20049;-79
2024/02/17 12:52:21;;;;;;;10.32;6.53;;;;;;;14.39;63.52;101896.91;10440383;28;20067;-84
2024/02/17 12:57:24;;;;;;;9.15;6.53;;;;;;;14.89;58.50;101894.09;10467532;28;20101;-76
2024/02/17 13:02:27;;;;;;;9.35;5.55;;;;;;;15.90;56.37;101891.69;10451088;28;20056;-83
2024/02/17 13:07:32;;;;;;;11.23;5.13;;;;;;;16.53;51.02;101890.16;10451673;28;20519;-81
2024/02/17 13:12:35;;;;;;;7.05;5.00;;;;;;;16.59;51.25;101900.53;10440434;28;20107;-81
2024/02/17 13:17:38;;;;;;;8.25;4.68;;;;;;;16.09;54.18;101900.06;10441135;28;20045;-83
2024/02/17 13:22:43;;;;;;;6.95;4.70;;;;;;;17.86;49.36;101905.09;10443264;28;20080;-81
2024/02/17 13:27:46;;;;;;;6.50;4.80;;;;;;;16.25;51.79;101906.97;10437030;28;20068;-79
2024/02/17 13:32:49;;;;;;;7.43;4.85;;;;;;;14.65;56.88;101913.06;10448549;28;20048;-81
2024/02/17 13:37:53;;;;;;;7.05;5.10;;;;;;;13.12;62.69;101916.63;10443314;28;20420;-81
2024/02/17 13:42:57;;;;;;;10.82;6.43;;;;;;;12.07;69.02;101926.09;10444239;28;20109;-80
2024/02/17 13:48:08;;;;;;;6.43;4.70;;;;;;;12.83;66.87;101925.72;10445539;28;20045;-81
2024/02/17 13:53:12;;;;;;;10.60;6.20;;;;;;;14.07;62.14;101920.81;10437158;28;20041;-78
2024/02/17 13:58:15;;;;;;;9.23;5.38;;;;;;;14.26;59.77;101936.56;10455738;28;20061;-80
2024/02/17 14:03:18;;;;;;;9.85;5.28;;;;;;;13.43;61.97;101924.38;10449411;28;20368;-80
2024/02/17 14:08:23;;;;;;;7.60;4.93;;;;;;;12.88;62.36;101925.38;10447411;28;20044;-79
2024/02/17 14:13:26;;;;;;;5.82;4.57;;;;;;;12.09;67.52;101940.31;10463291;28;20072;-80
2024/02/17 14:18:29;;;;;;;8.02;5.03;;;;;;;11.73;69.70;101932.72;10455951;28;20041;-82
2024/02/17 14:23:34;;;;;;;7.53;4.20;;;;;;;13.45;61.17;101941.34;10452577;28;20072;-80
2024/02/17 14:28:38;;;;;;;6.80;4.35;;;;;;;12.95;62.62;101944.75;10449899;28;20048;-80
2024/02/17 14:33:41;;;;;;;8.70;5.13;;;;;;;12.90;62.68;101942.34;10452436;28;20041;-79
2024/02/17 14:38:46;;;;;;;7.60;4.65;;;;;;;13.38;60.28;101953.50;10446998;28;20033;-81
2024/02/17 14:43:49;;;;;;;11.82;5.13;;;;;;;12.93;62.03;101949.34;10441233;28;20531;-80
2024/02/17 14:48:52;;;;;;;9.10;4.97;;;;;;;12.43;65.98;101970.56;10451296;28;20034;-80
2024/02/17 14:53:56;;;;;;;8.50;4.82;;;;;;;13.90;61.87;101963.44;10447929;28;20045;-81
2024/02/17 14:59:00;;;;;;;7.25;4.97;;;;;;;14.12;58.07;101954.66;10449049;28;20349;-81
2024/02/17 15:04:03;;;;;;;6.85;4.72;;;;;;;12.85;65.27;101976.84;10446379;28;20076;-81
2024/02/17 15:09:08;;;;;;;8.40;5.20;;;;;;;12.43;65.94;101978.66;10457009;28;20091;-81
2024/02/17 15:14:11;;;;;;;8.30;5.32;;;;;;;12.60;66.39;101991.91;10448570;28;20389;-82
2024/02/17 15:19:14;;;;;;;8.25;6.07;;;;;;;12.64;66.63;101989.88;10456667;28;20101;-81
2024/02/17 15:24:19;;;;;;;9.07;5.35;;;;;;;12.25;67.42;102004.03;10456390;28;20041;-81
2024/02/17 15:29:22;;;;;;;8.15;5.55;;;;;;;11.98;68.48;102006.59;10450365;28;20485;-81
2024/02/17 15:34:25;;;;;;;9.02;6.05;;;;;;;12.05;68.48;102008.81;10444245;28;20132;-80
2024/02/17 15:39:33;;;;;;;10.93;6.40;;;;;;;11.68;70.69;102008.38;10443729;28;20049;-82
2024/02/17 15:44:37;;;;;;;9.57;6.38;;;;;;;11.17;73.45;102006.94;10444183;28;20037;-81
2024/02/17 15:49:40;;;;;;;13.52;6.90;;;;;;;10.97;74.85;102024.16;10449750;28;20036;-79
2024/02/17 15:54:44;;;;;;;11.90;8.02;;;;;;;11.18;74.54;102028.34;10450603;28;20059;-79
2024/02/17 15:59:49;;;;;;;13.18;7.90;;;;;;;10.77;76.16;102028.84;10454370;28;20037;-80
2024/02/17 16:04:52;;;;;;;11.48;7.35;;;;;;;10.98;75.58;102024.09;10457517;28;20041;-80
2024/02/17 16:09:57;;;;;;;11.80;7.72;;;;;;;11.03;75.96;102038.16;10446599;28;20040;-81
2024/02/17 16:15:00;;;;;;;12.68;7.78;;;;;;;10.47;79.93;102046.66;10456528;28;20067;-80
2024/02/17 16:20:10;;;;;;;13.93;8.35;;;;;;;10.22;81.28;102045.28;10457022;28;20048;-78
2024/02/17 16:25:15;;;;;;;13.75;8.18;;;;;;;10.08;81.24;102045.16;10453703;28;20037;-80
2024/02/17 16:30:18;;;;;;;15.52;8.32;;;;;;;10.53;81.05;102059.75;10449208;28;20112;-79
2024/02/17 16:35:21;;;;;;;12.00;8.65;;;;;;;10.45;82.53;102057.50;10442677;28;20060;-78
2024/02/17 16:40:25;;;;;;;20.45;9.80;;;;;;;10.45;83.55;102060.19;10440260;28;20052;-78
2024/02/17 16:45:29;;;;;;;14.88;9.13;;;;;;;10.50;83.54;102062.63;10456030;28;20047;-80
2024/02/17 16:50:36;;;;;;;15.90;9.30;;;;;;;10.66;83.34;102071.56;10455354;28;20118;-78
2024/02/17 16:55:41;;;;;;;17.20;9.73;;;;;;;10.71;83.01;102058.75;10452430;28;20072;-80
2024/02/17 17:00:44;;;;;;;15.32;9.63;;;;;;;10.72;82.46;102076.59;10443035;28;20119;-80
2024/02/17 17:05:47;;;;;;;13.48;9.10;;;;;;;10.65;82.27;102071.69;10444306;28;20417;-78
2024/02/17 17:10:51;;;;;;;16.60;9.90;;;;;;;10.63;82.80;102065.50;10443972;28;20052;-79
2024/02/17 17:15:54;;;;;;;16.52;10.27;;;;;;;10.64;82.62;102075.31;10455546;28;20045;-79
2024/02/17 17:20:59;;;;;;;16.90;10.20;;;;;;;10.66;82.81;102078.78;10469612;28;20091;-80
2024/02/17 17:26:04;;;;;;;17.55;10.05;;;;;;;10.66;82.47;102085.03;10451436;28;20411;-80
2024/02/17 17:31:07;;;;;;;20.63;11.07;;;;;;;10.61;82.28;102089.78;10447985;28;20123;-78
2024/02/17 17:36:10;;;;;;;18.95;11.85;;;;;;;10.43;82.08;102085.41;10445319;28;20510;-79
2024/02/17 17:41:14;;;;;;;19.65;11.85;;;;;;;10.27;82.88;102102.34;10435029;28;20431;-79
2024/02/17 17:46:17;;;;;;;18.67;11.25;;;;;;;10.22;83.33;102100.84;10456829;28;20124;-78
2024/02/17 17:51:20;;;;;;;21.02;11.45;;;;;;;10.19;84.02;102104.53;10451213;28;20045;-80
2024/02/17 17:56:25;;;;;;;19.40;12.15;;;;;;;10.08;84.41;102114.97;10449955;28;20048;-78
2024/02/17 18:01:28;;;;;;;20.95;12.98;;;;;;;10.09;84.74;102112.22;10442701;28;20047;-80
2024/02/17 18:06:31;;;;;;;20.42;11.35;;;;;;;10.23;84.59;102111.50;10437248;28;20583;-79
2024/02/17 18:11:36;;;;;;;17.52;11.32;;;;;;;10.34;84.19;102119.00;10448036;28;20042;-80
2024/02/17 18:16:39;;;;;;;21.13;12.13;;;;;;;10.38;83.88;102115.19;10451257;28;20455;-80
2024/02/17 18:21:42;;;;;;;17.67;12.82;;;;;;;10.41;84.01;102106.13;10455937;28;20492;-78
2024/02/17 18:26:48;;;;;;;19.52;13.10;;;;;;;10.49;84.46;102112.81;10447920;28;20057;-79
2024/02/17 18:31:51;;;;;;;25.77;15.05;;;;;;;10.53;83.95;102111.72;10442532;28;20049;-79
2024/02/17 18:36:55;;;;;;;27.40;14.13;;;;;;;10.55;84.03;102111.63;10448219;28;20508;-79
2024/02/17 18:42:00;;;;;;;31.73;16.92;;;;;;;10.60;84.27;102114.91;10446205;28;20041;-78
2024/02/17 18:47:03;;;;;;;25.40;16.45;;;;;;;10.61;84.31;102114.84;10450717;28;20088;-81
2024/02/17 18:52:07;;;;;;;24.25;15.13;;;;;;;10.60;83.90;102113.09;10448060;28;20061;-80
2024/02/17 18:57:11;;;;;;;26.67;16.60;;;;;;;10.56;84.38;102113.38;10445696;28;20764;-80
2024/02/17 19:02:14;;;;;;;28.65;17.27;;;;;;;10.53;84.75;102114.41;10447733;28;20121;-80
2024/02/17 19:07:17;;;;;;;33.63;20.75;;;;;;;10.47;85.21;102112.00;10441304;28;20040;-81
2024/02/17 19:12:22;;;;;;;71.15;36.42;;;;;;;10.40;85.88;102102.56;10449450;28;20060;-80
2024/02/17 19:17:25;;;;;;;56.58;31.88;;;;;;;10.31;86.02;102106.59;10448712;28;20490;-80
2024/02/17 19:22:28;;;;;;;46.17;27.55;;;;;;;10.29;86.62;102113.88;10451996;28;20037;-79
2024/02/17 19:27:33;;;;;;;42.22;25.23;;;;;;;10.26;86.88;102115.84;10447416;28;20049;-80
2024/02/17 19:32:37;;;;;;;40.40;23.48;;;;;;;10.27;87.06;102107.69;10468803;28;20512;-80
2024/02/17 19:37:40;;;;;;;38.97;23.98;;;;;;;10.37;86.84;102106.28;10456100;28;20679;-79
2024/02/17 19:42:44;;;;;;;30.10;19.88;;;;;;;10.34;86.34;102100.22;10454516;28;20087;-80
2024/02/17 19:47:47;;;;;;;29.70;19.63;;;;;;;10.16;87.79;102072.50;10458340;28;20041;-80
2024/02/17 19:52:51;;;;;;;31.85;18.20;;;;;;;9.82;92.29;102087.63;10454273;28;20610;-80
2024/02/17 19:57:55;;;;;;;37.85;19.42;;;;;;;9.82;94.91;102086.75;10450515;28;20049;-80
2024/02/17 20:02:58;;;;;;;35.88;19.95;;;;;;;9.70;97.64;102090.91;10456078;28;20038;-80
2024/02/17 20:08:02;;;;;;;38.03;20.80;;;;;;;9.79;98.58;102120.00;10447025;28;20045;-79
2024/02/17 20:13:06;;;;;;;37.58;19.98;;;;;;;9.85;98.50;102119.69;10449715;28;20091;-80
2024/02/17 20:18:09;;;;;;;35.25;21.45;;;;;;;9.86;98.81;102118.75;10450870;28;20041;-78
2024/02/17 20:23:12;;;;;;;34.45;20.45;;;;;;;9.88;99.06;102121.38;10468165;28;20523;-79
2024/02/17 20:28:18;;;;;;;41.38;23.58;;;;;;;9.99;99.02;102123.53;10456209;28;20064;-80
2024/02/17 20:33:22;;;;;;;38.25;21.55;;;;;;;9.97;99.09;102141.50;10455222;28;20059;-80
2024/02/17 20:38:25;;;;;;;41.78;22.80;;;;;;;9.72;100.00;102157.00;10444365;28;20044;-82
2024/02/17 20:43:30;;;;;;;43.20;23.73;;;;;;;9.46;100.00;102165.44;10448963;28;20036;-80
2024/02/17 20:48:33;;;;;;;43.17;25.20;;;;;;;9.53;100.00;102166.88;10446558;28;20047;-80
2024/02/17 20:53:36;;;;;;;49.05;27.48;;;;;;;9.54;100.00;102167.75;10457407;28;20124;-80
2024/02/17 20:58:40;;;;;;;51.80;28.77;;;;;;;9.59;100.00;102165.72;10455633;28;20370;-79
2024/02/17 21:03:43;;;;;;;56.78;28.35;;;;;;;9.50;100.00;102172.41;10449637;28;20505;-81
2024/02/17 21:08:46;;;;;;;59.97;31.25;;;;;;;9.55;100.00;102162.34;10454090;28;20075;-79
2024/02/17 21:13:51;;;;;;;59.50;32.75;;;;;;;9.55;100.00;102173.06;10442449;28;20037;-80
2024/02/17 21:18:54;;;;;;;63.42;33.75;;;;;;;9.75;100.00;102176.59;10455856;28;20056;-78
2024/02/17 21:23:57;;;;;;;61.72;33.67;;;;;;;9.74;100.00;102173.03;10451570;28;20041;-80
2024/02/17 21:29:01;;;;;;;63.40;34.58;;;;;;;9.78;100.00;102171.91;10452208;28;20049;-79
2024/02/17 21:34:05;;;;;;;76.65;38.88;;;;;;;9.83;100.00;102186.00;10445709;28;20025;-81
2024/02/17 21:39:09;;;;;;;84.00;41.22;;;;;;;9.82;100.00;102178.00;10437628;28;20037;-78
2024/02/17 21:44:14;;;;;;;75.35;41.25;;;;;;;9.81;100.00;102178.97;10464003;28;20048;-81
2024/02/17 21:49:17;;;;;;;90.07;43.72;;;;;;;9.71;100.00;102174.06;10448367;28;20052;-78
2024/02/17 21:54:20;;;;;;;90.82;46.65;;;;;;;9.80;100.00;102182.59;10453889;28;20128;-81
2024/02/17 21:59:24;;;;;;;90.10;45.50;;;;;;;9.76;100.00;102168.44;10446795;28;20042;-80
2024/02/17 22:04:28;;;;;;;90.05;46.65;;;;;;;9.58;100.00;102164.00;10441238;28;20037;-79
2024/02/17 22:09:31;;;;;;;95.20;47.22;;;;;;;9.53;100.00;102172.25;10447550;28;20056;-78
2024/02/17 22:14:36;;;;;;;99.80;49.53;;;;;;;9.60;100.00;102156.72;10455804;28;20045;-80
2024/02/17 22:19:41;;;;;;;102.05;50.28;;;;;;;9.68;100.00;102159.91;10441633;28;20041;-80
2024/02/17 22:24:44;;;;;;;99.82;51.67;;;;;;;9.77;100.00;102154.09;10450544;28;20048;-80
2024/02/17 22:29:48;;;;;;;103.03;53.33;;;;;;;9.76;100.00;102149.66;10440425;28;20045;-80
2024/02/17 22:34:51;;;;;;;101.93;53.15;;;;;;;9.81;100.00;102134.19;10445204;28;20385;-80
2024/02/17 22:39:54;;;;;;;110.10;51.72;;;;;;;9.81;100.00;102109.16;10438418;28;20120;-80
2024/02/17 22:45:00;;;;;;;109.55;50.95;;;;;;;9.41;100.00;102135.31;10436705;28;20048;-81
2024/02/17 22:50:03;;;;;;;101.40;50.17;;;;;;;9.31;100.00;102125.97;10442277;28;20043;-79